Wooler, United Kingdom
Current Conditions -  °F | °C
As of 3:50 PM on Monday 26 Jan 2015 (Local Time) from EGQM Reporting Station
Clear Clear  
Wind Chill: 36°   Ceiling: Unl
Heat Index: 43°   Visibility: 6mi
Dew Point: 32°   Wind: 14mph
Humidity: 66%   Direction: 270°W
Pressure: 30.12"   Gusts: NA
Location:  55.55°N, 2.01°W
Report Text: EGQM 261550Z AUTO 27012KT 9999 NCD 06/M00 Q1020
Loading
Personal Weather Stations






























Interactive Weather Map New forecast layout! Learn more

10-Day Weather Forecast

Advertisements
Track Severe Weather on mobile